Time;durP1;ratioP1;P1;durP2;ratioP2;P2;SDS_P1;SDS_P2;PMS_P1;PMS_P2;Temp;Humidity;BMP_temperature;BMP_pressure;BME280_temperature;BME280_humidity;BME280_pressure;Samples;Min_cycle;Max_cycle;Signal;HPM_P1;HPM_P2
2022/05/09 00:00:32;;;;;;;12.05;2.52;;;;;;;6.78;65.41;102795.87;1713256;81;21306;-87
2022/05/09 00:03:00;;;;;;;8.35;2.10;;;;;;;6.77;65.48;102794.03;1728996;79;21072;-86
2022/05/09 00:05:28;;;;;;;11.43;2.60;;;;;;;6.78;65.56;102797.18;1710509;82;21041;-85
2022/05/09 00:07:54;;;;;;;10.08;2.52;;;;;;;6.78;65.56;102806.34;1727829;81;21908;-86
2022/05/09 00:10:27;;;;;;;11.55;3.08;;;;;;;6.79;65.49;102798.08;1720233;81;21061;-87
2022/05/09 00:12:54;;;;;;;13.18;3.40;;;;;;;6.78;65.51;102801.11;1714991;81;21076;-87
2022/05/09 00:15:24;;;;;;;12.50;2.92;;;;;;;6.76;65.49;102801.80;1679291;83;21185;-88
2022/05/09 00:17:50;;;;;;;16.93;3.47;;;;;;;6.73;65.52;102801.56;1707859;81;21084;-87
2022/05/09 00:20:19;;;;;;;16.12;3.22;;;;;;;6.70;65.59;102797.03;1676825;83;21819;-87
2022/05/09 00:22:52;;;;;;;11.05;3.40;;;;;;;6.69;65.63;102803.05;1676279;83;20966;-87
2022/05/09 00:25:22;;;;;;;17.12;3.65;;;;;;;6.66;65.64;102798.88;1657097;84;21100;-87
2022/05/09 00:27:49;;;;;;;16.32;4.03;;;;;;;6.63;65.66;102803.91;1686925;84;21150;-87
2022/05/09 00:30:16;;;;;;;17.07;3.50;;;;;;;6.58;65.74;102804.86;1667861;84;21161;-88
2022/05/09 00:32:42;;;;;;;21.57;3.00;;;;;;;6.56;65.82;102806.86;1674092;84;21941;-88
2022/05/09 00:35:10;;;;;;;13.50;3.42;;;;;;;6.52;65.88;102812.67;1669114;85;21081;-87
2022/05/09 00:37:38;;;;;;;18.02;3.45;;;;;;;6.52;65.96;102807.44;1664932;84;21086;-87
2022/05/09 00:40:08;;;;;;;12.60;2.67;;;;;;;6.52;66.05;102812.27;1667929;85;21090;-87
2022/05/09 00:42:36;;;;;;;12.40;3.12;;;;;;;6.51;66.05;102818.28;1734604;81;21052;-87
2022/05/09 00:45:04;;;;;;;9.03;3.10;;;;;;;6.50;66.11;102811.65;1673684;83;22478;-87
2022/05/09 00:47:31;;;;;;;6.55;3.35;;;;;;;6.49;66.17;102813.73;1734108;82;21357;-87
2022/05/09 00:50:00;;;;;;;15.10;3.70;;;;;;;6.48;66.17;102812.84;1679488;83;21581;-87
2022/05/09 00:52:37;;;;;;;18.05;4.10;;;;;;;6.48;66.11;102810.63;1647758;85;21521;-87
2022/05/09 00:55:18;;;;;;;11.48;3.58;;;;;;;6.49;66.06;102815.05;1675732;83;21322;-87
2022/05/09 00:57:59;;;;;;;7.92;3.17;;;;;;;6.48;66.05;102812.84;1728807;82;21764;-88
2022/05/09 01:00:25;;;;;;;7.28;2.98;;;;;;;6.51;66.14;102816.06;1721442;81;21551;-87
2022/05/09 01:02:59;;;;;;;15.45;3.05;;;;;;;6.53;66.05;102818.40;1720199;82;21075;-87
2022/05/09 01:05:23;;;;;;;7.22;2.83;;;;;;;6.54;66.10;102823.75;1699591;83;21099;-87
2022/05/09 01:07:51;;;;;;;12.45;3.37;;;;;;;6.52;65.92;102827.06;1729222;82;21052;-88
2022/05/09 01:10:17;;;;;;;6.15;2.50;;;;;;;6.50;65.86;102829.97;1706954;81;21758;-88
2022/05/09 01:12:44;;;;;;;9.15;2.70;;;;;;;6.49;65.78;102829.44;1725380;81;21077;-87
2022/05/09 01:15:16;;;;;;;4.92;2.30;;;;;;;6.47;65.71;102833.23;1736140;81;21347;-88
2022/05/09 01:17:46;;;;;;;6.55;2.37;;;;;;;6.46;65.76;102830.50;1690290;83;22514;-88
2022/05/09 01:20:13;;;;;;;10.98;3.02;;;;;;;6.45;65.72;102830.91;1739255;81;21094;-87
2022/05/09 01:22:40;;;;;;;8.78;2.58;;;;;;;6.46;65.73;102826.58;1740557;82;21803;-86
2022/05/09 01:25:11;;;;;;;9.95;2.42;;;;;;;6.47;65.70;102835.86;1731102;81;21080;-87
2022/05/09 01:27:41;;;;;;;11.60;2.83;;;;;;;6.47;65.61;102834.55;1731756;81;21063;-86
2022/05/09 01:30:13;;;;;;;10.08;2.67;;;;;;;6.45;65.61;102837.86;1726118;80;21063;-86
2022/05/09 01:32:47;;;;;;;10.82;2.72;;;;;;;6.45;65.53;102837.86;1728432;82;21064;-87
2022/05/09 01:35:19;;;;;;;8.73;2.70;;;;;;;6.39;65.52;102843.13;1736008;82;21721;-87
2022/05/09 01:37:49;;;;;;;8.35;2.90;;;;;;;6.36;65.56;102848.16;1731790;81;21048;-86
2022/05/09 01:40:16;;;;;;;9.10;2.60;;;;;;;6.32;65.65;102846.07;1741593;82;21072;-87
2022/05/09 01:42:43;;;;;;;5.97;2.77;;;;;;;6.30;65.65;102847.66;1729201;82;21633;-87
2022/05/09 01:45:11;;;;;;;10.18;2.60;;;;;;;6.29;65.75;102856.32;1719385;82;21150;-87
2022/05/09 01:50:23;;;;;;;7.35;2.52;;;;;;;6.28;65.84;102848.35;1706364;81;21062;-87
2022/05/09 01:52:51;;;;;;;12.78;3.25;;;;;;;6.30;65.87;102853.30;1729800;80;20990;-87
2022/05/09 01:55:18;;;;;;;6.10;2.33;;;;;;;6.28;65.82;102857.09;1730482;81;21100;-87
2022/05/09 01:57:45;;;;;;;10.43;2.90;;;;;;;6.25;65.87;102854.27;1713001;81;21206;-87
2022/05/09 02:00:14;;;;;;;4.50;2.20;;;;;;;6.25;65.91;102852.03;1740694;82;21540;-86
2022/05/09 02:02:41;;;;;;;11.55;2.67;;;;;;;6.21;65.98;102857.05;1740641;82;21065;-88
2022/05/09 02:05:08;;;;;;;10.85;2.30;;;;;;;6.21;65.99;102854.43;1744397;82;22155;-86
2022/05/09 02:07:35;;;;;;;12.00;2.70;;;;;;;6.17;66.01;102851.04;1726108;81;21077;-86
2022/05/09 02:10:03;;;;;;;6.42;2.58;;;;;;;6.15;66.08;102849.11;1715594;82;21087;-86
2022/05/09 02:12:29;;;;;;;7.58;2.22;;;;;;;6.13;66.07;102849.39;1745864;82;21810;-86
2022/05/09 02:14:56;;;;;;;7.40;2.35;;;;;;;6.12;66.12;102842.33;1743934;81;21086;-86
2022/05/09 02:17:23;;;;;;;6.03;2.17;;;;;;;6.10;66.20;102840.00;1723311;81;21063;-85
2022/05/09 02:19:50;;;;;;;5.28;2.00;;;;;;;6.12;66.21;102852.41;1745299;82;21006;-85
2022/05/09 02:22:18;;;;;;;9.18;2.33;;;;;;;6.10;66.21;102849.15;1736171;81;21099;-85
2022/05/09 02:24:45;;;;;;;8.98;1.85;;;;;;;6.08;66.23;102852.05;1727740;82;22153;-85
2022/05/09 02:27:12;;;;;;;5.67;2.20;;;;;;;6.06;66.25;102856.25;1740252;81;21541;-85
2022/05/09 02:29:42;;;;;;;4.62;1.75;;;;;;;6.07;66.34;102854.16;1742056;81;21055;-86
2022/05/09 02:32:09;;;;;;;6.20;2.05;;;;;;;6.05;66.34;102856.66;1737019;82;21084;-86
2022/05/09 02:34:35;;;;;;;10.50;2.50;;;;;;;6.06;66.32;102857.55;1727247;82;21113;-86
2022/05/09 02:37:03;;;;;;;8.13;2.17;;;;;;;6.05;66.37;102863.19;1743814;81;21895;-86
2022/05/09 02:39:30;;;;;;;5.60;2.42;;;;;;;6.06;66.37;102864.09;1692787;83;21121;-86
2022/05/09 02:41:58;;;;;;;5.75;2.10;;;;;;;6.07;66.41;102864.22;1671434;84;21074;-86
2022/05/09 02:44:25;;;;;;;5.37;1.95;;;;;;;5.95;66.40;102842.30;1652113;84;21081;-86
2022/05/09 02:46:52;;;;;;;4.37;1.85;;;;;;;6.09;66.35;102868.27;1671312;84;21712;-85
2022/05/09 02:49:19;;;;;;;6.42;2.05;;;;;;;6.08;66.32;102876.88;1671531;84;22550;-86
2022/05/09 02:51:48;;;;;;;7.05;2.22;;;;;;;6.03;66.27;102876.14;1671067;84;21105;-85
2022/05/09 02:54:15;;;;;;;8.23;1.85;;;;;;;5.96;66.32;102876.45;1671456;84;21580;-87
2022/05/09 02:56:46;;;;;;;7.78;1.85;;;;;;;5.92;66.37;102874.36;1669923;84;21153;-86
2022/05/09 02:59:15;;;;;;;7.37;2.15;;;;;;;5.90;66.43;102876.35;1648686;84;21121;-87
2022/05/09 03:01:42;;;;;;;5.80;2.00;;;;;;;5.86;66.47;102877.81;1662897;84;21777;-86
2022/05/09 03:06:53;;;;;;;7.30;2.22;;;;;;;5.85;66.61;102886.02;1660093;84;21117;-87
2022/05/09 03:09:20;;;;;;;7.30;2.42;;;;;;;5.86;66.67;102893.49;1660082;85;21046;-87
2022/05/09 03:11:47;;;;;;;7.80;2.50;;;;;;;5.88;66.67;102887.98;1658250;85;21120;-87
2022/05/09 03:14:13;;;;;;;5.62;2.02;;;;;;;5.91;66.67;102899.06;1657389;85;22864;-87
2022/05/09 03:16:43;;;;;;;9.28;2.55;;;;;;;5.83;66.65;102876.25;1652401;85;21077;-86
2022/05/09 03:19:11;;;;;;;8.03;2.15;;;;;;;5.97;66.65;102895.28;1642614;87;21061;-86
2022/05/09 03:21:38;;;;;;;6.15;2.77;;;;;;;6.03;66.60;102900.07;1640316;85;21491;-86
2022/05/09 03:24:07;;;;;;;7.37;2.60;;;;;;;6.09;66.53;102897.02;1654235;84;21069;-87
2022/05/09 03:26:36;;;;;;;5.87;2.30;;;;;;;6.17;66.48;102898.52;1628706;87;21113;-87
2022/05/09 03:29:03;;;;;;;5.17;1.98;;;;;;;6.27;66.49;102897.52;1641245;85;21654;-87
2022/05/09 03:31:30;;;;;;;8.03;2.52;;;;;;;6.45;66.51;102899.33;1670986;84;21105;-87
2022/05/09 03:33:57;;;;;;;6.00;2.87;;;;;;;6.68;66.34;102902.38;1664802;84;21108;-87
2022/05/09 03:36:24;;;;;;;2.30;1.70;;;;;;;7.13;66.84;102903.97;1667130;85;22208;-86
2022/05/09 03:38:50;;;;;;;2.95;1.92;;;;;;;8.18;67.41;102901.46;1678334;83;22527;-86
2022/05/09 03:41:17;;;;;;;6.62;2.02;;;;;;;9.62;67.02;102903.06;1695975;83;20945;-86
2022/05/09 03:43:44;;;;;;;4.62;1.85;;;;;;;10.99;65.43;102901.73;1722324;82;20996;-86
2022/05/09 03:46:10;;;;;;;4.95;1.90;;;;;;;12.09;64.27;102900.81;1709258;83;21072;-86
2022/05/09 03:48:39;;;;;;;6.62;2.17;;;;;;;13.30;62.85;102894.56;1717623;81;21080;-86
2022/05/09 03:51:06;;;;;;;5.85;2.20;;;;;;;14.25;61.19;102897.66;1710597;81;21734;-86
2022/05/09 03:53:32;;;;;;;3.90;1.85;;;;;;;15.25;59.91;102897.02;1702347;82;21069;-86
2022/05/09 03:56:08;;;;;;;6.08;2.08;;;;;;;16.18;58.69;102891.75;1681825;82;21094;-86
2022/05/09 03:58:33;;;;;;;6.50;1.70;;;;;;;16.96;57.38;102897.98;1674289;83;21105;-87
2022/05/09 04:01:02;;;;;;;5.03;2.12;;;;;;;17.69;55.43;102899.40;1708990;82;21431;-87
2022/05/09 04:03:29;;;;;;;10.48;2.30;;;;;;;18.28;54.36;102896.66;1708623;82;21717;-87
2022/05/09 04:05:56;;;;;;;3.15;1.60;;;;;;;18.66;53.10;102856.79;1707386;83;21081;-87
2022/05/09 04:08:24;;;;;;;4.90;1.85;;;;;;;19.26;51.68;102892.97;1715528;82;21089;-86
2022/05/09 04:10:56;;;;;;;6.75;2.00;;;;;;;19.87;50.96;102897.44;1709086;80;21106;-87
2022/05/09 04:13:24;;;;;;;4.65;1.62;;;;;;;20.49;50.31;102895.52;1708111;80;21103;-87
2022/05/09 04:18:40;;;;;;;2.35;1.30;;;;;;;21.53;47.30;102890.98;1684768;83;21116;-87
2022/05/09 04:21:13;;;;;;;4.30;1.67;;;;;;;22.14;47.24;102894.84;1705901;83;21004;-89
2022/05/09 04:23:40;;;;;;;3.67;1.40;;;;;;;22.69;46.20;102879.78;1705419;83;21137;-88
2022/05/09 04:26:10;;;;;;;3.05;1.50;;;;;;;23.42;45.69;102900.45;1680955;83;21089;-89
2022/05/09 04:28:35;;;;;;;2.60;1.57;;;;;;;24.53;43.26;102907.20;1706237;83;22783;-88
2022/05/09 04:31:02;;;;;;;5.65;1.47;;;;;;;24.53;43.26;102907.20;1712068;82;21089;-88
2022/05/09 04:33:31;;;;;;;3.70;1.57;;;;;;;24.73;42.25;102911.69;1711432;82;21127;-87
2022/05/09 04:35:59;;;;;;;2.37;1.77;;;;;;;24.79;41.25;102910.33;1706102;83;21092;-86
2022/05/09 04:38:26;;;;;;;3.00;1.62;;;;;;;25.04;41.00;102911.23;1706098;83;21038;-88
2022/05/09 04:40:54;;;;;;;3.35;1.65;;;;;;;25.45;40.15;102914.31;1689405;83;22518;-88
2022/05/09 04:43:23;;;;;;;7.37;2.10;;;;;;;25.74;39.38;102918.27;1689962;83;21065;-86
2022/05/09 04:45:51;;;;;;;4.35;1.77;;;;;;;26.21;39.01;102918.09;1724587;80;21099;-88
2022/05/09 04:48:20;;;;;;;4.90;1.60;;;;;;;27.15;38.88;102916.91;1724512;80;21075;-88
2022/05/09 04:50:47;;;;;;;3.17;1.57;;;;;;;27.56;37.16;102894.42;1721880;80;21573;-87
2022/05/09 04:53:22;;;;;;;3.22;1.52;;;;;;;27.28;35.88;102935.30;1732525;80;21130;-85
2022/05/09 04:55:47;;;;;;;3.70;1.57;;;;;;;26.85;35.74;102926.20;1739327;80;21089;-87
2022/05/09 04:58:18;;;;;;;4.08;1.60;;;;;;;27.13;35.58;102926.38;1701422;80;21129;-88
2022/05/09 05:00:46;;;;;;;3.58;1.42;;;;;;;27.82;34.67;102929.27;1701748;82;21083;-86
2022/05/09 05:03:13;;;;;;;7.67;1.92;;;;;;;28.05;33.87;102935.76;1676554;83;21074;-93
2022/05/09 05:05:42;;;;;;;6.25;1.67;;;;;;;28.02;33.01;102933.97;1700309;83;21928;-93
2022/05/09 05:08:14;;;;;;;3.67;1.62;;;;;;;27.89;32.69;102924.22;1732368;82;21124;-91
2022/05/09 05:10:41;;;;;;;3.80;1.40;;;;;;;28.17;32.22;102937.39;1726775;80;21157;-86
2022/05/09 05:13:08;;;;;;;5.17;1.37;;;;;;;28.17;31.47;102945.52;1733384;80;21088;-86
2022/05/09 05:15:34;;;;;;;3.47;1.67;;;;;;;27.96;30.61;102936.77;1687577;82;21080;-85
2022/05/09 05:18:01;;;;;;;2.02;1.10;;;;;;;27.64;30.29;102939.38;1696505;83;21751;-85
2022/05/09 05:20:28;;;;;;;5.95;1.80;;;;;;;27.46;30.37;102936.88;1684496;83;21151;-85
2022/05/09 05:22:55;;;;;;;5.62;1.42;;;;;;;27.40;29.47;102927.03;1677862;84;22184;-86
2022/05/09 05:25:24;;;;;;;1.57;1.00;;;;;;;27.16;29.83;102938.99;1654129;85;21133;-86
2022/05/09 05:27:51;;;;;;;5.05;1.50;;;;;;;27.31;29.40;102944.27;1718018;82;21078;-87
2022/05/09 05:30:18;;;;;;;3.58;1.55;;;;;;;27.04;29.14;102939.09;1708964;80;21801;-87
2022/05/09 05:32:45;;;;;;;6.22;2.02;;;;;;;26.54;28.71;102939.47;1724227;82;21145;-86
2022/05/09 05:35:18;;;;;;;2.85;1.30;;;;;;;24.49;27.98;102940.34;1725773;81;21071;-86
2022/05/09 05:37:44;;;;;;;5.67;2.08;;;;;;;21.91;28.50;102947.33;1718180;82;21646;-87
2022/05/09 05:40:12;;;;;;;4.47;1.42;;;;;;;19.97;29.38;102951.57;1731396;82;21080;-87
2022/05/09 05:42:40;;;;;;;4.20;1.50;;;;;;;18.36;30.01;102957.78;1714050;82;21769;-87
2022/05/09 05:45:10;;;;;;;1.67;1.07;;;;;;;16.96;31.01;102958.74;1725277;82;21528;-85
2022/05/09 05:47:36;;;;;;;1.90;1.37;;;;;;;15.81;31.89;102967.83;1721683;82;21124;-85
2022/05/09 05:50:07;;;;;;;5.45;1.35;;;;;;;14.84;32.85;102968.70;1722262;81;22011;-86
2022/05/09 05:52:34;;;;;;;5.17;1.20;;;;;;;14.30;33.57;102968.98;1734305;82;21032;-85
2022/05/09 05:55:00;;;;;;;2.95;1.20;;;;;;;13.76;33.95;102973.53;1741115;80;22568;-85
2022/05/09 05:57:29;;;;;;;4.28;1.37;;;;;;;13.36;34.35;102971.59;1742491;81;21072;-85
2022/05/09 05:59:58;;;;;;;3.42;1.30;;;;;;;12.96;34.67;102973.54;1738877;81;21139;-85
2022/05/09 06:02:26;;;;;;;3.45;1.15;;;;;;;12.57;35.13;102974.19;1727847;82;21191;-85
2022/05/09 06:04:52;;;;;;;2.37;1.20;;;;;;;12.34;35.63;102974.73;1741836;81;21127;-85
2022/05/09 06:07:19;;;;;;;2.83;1.02;;;;;;;12.10;35.79;102978.27;1729739;82;21737;-86
2022/05/09 06:09:46;;;;;;;3.12;1.17;;;;;;;11.84;36.29;102978.63;1710208;81;21072;-86
2022/05/09 06:12:15;;;;;;;4.60;1.67;;;;;;;11.76;36.41;102979.91;1745871;81;21086;-85
2022/05/09 06:14:42;;;;;;;4.47;1.55;;;;;;;11.68;36.62;102983.87;1746329;81;21097;-86
2022/05/09 06:17:09;;;;;;;2.92;1.40;;;;;;;11.53;36.58;102988.28;1721350;81;21081;-86
2022/05/09 06:19:37;;;;;;;8.35;1.60;;;;;;;11.43;36.89;102985.11;1726059;81;22144;-86
2022/05/09 06:22:04;;;;;;;3.00;1.80;;;;;;;11.34;37.02;102987.64;1736943;81;21082;-86
2022/05/09 06:24:31;;;;;;;4.35;1.87;;;;;;;11.16;37.17;102980.88;1745975;81;21465;-86
2022/05/09 06:26:58;;;;;;;3.75;1.75;;;;;;;11.03;37.54;102978.83;1745759;82;21039;-86
2022/05/09 06:29:25;;;;;;;7.03;1.30;;;;;;;11.01;37.73;102986.16;1745990;82;21050;-86
2022/05/09 06:31:51;;;;;;;6.15;1.27;;;;;;;11.05;37.79;102986.83;1721276;81;21731;-86
2022/05/09 06:34:18;;;;;;;2.27;1.50;;;;;;;11.06;37.78;102983.39;1746023;81;21063;-86
2022/05/09 06:36:45;;;;;;;2.65;1.22;;;;;;;11.00;37.83;102982.63;1746034;82;21043;-85
2022/05/09 06:39:11;;;;;;;2.17;1.40;;;;;;;10.91;37.73;102980.75;1732565;82;21213;-85
2022/05/09 06:41:38;;;;;;;1.50;0.90;;;;;;;10.88;37.63;102989.36;1692962;82;21493;-85
2022/05/09 06:44:05;;;;;;;3.08;0.90;;;;;;;10.77;37.59;102986.91;1703449;82;22100;-85
2022/05/09 06:46:33;;;;;;;2.87;1.10;;;;;;;10.70;37.75;102985.23;1699689;82;21058;-86
2022/05/09 06:49:00;;;;;;;6.00;1.10;;;;;;;10.73;37.96;102987.14;1670567;84;21074;-86
2022/05/09 06:51:28;;;;;;;2.62;1.30;;;;;;;10.70;37.93;102990.50;1670550;84;21118;-86
2022/05/09 06:53:55;;;;;;;4.87;1.45;;;;;;;10.70;37.89;102985.23;1670598;84;21102;-85
2022/05/09 06:56:22;;;;;;;3.02;1.00;;;;;;;10.78;37.87;102995.34;1667926;84;21759;-85
2022/05/09 06:58:49;;;;;;;1.45;1.10;;;;;;;10.79;37.71;102994.11;1643662;84;21525;-85
2022/05/09 07:01:17;;;;;;;3.92;1.42;;;;;;;10.79;37.60;102990.16;1663727;84;21070;-86
2022/05/09 07:03:43;;;;;;;3.75;1.12;;;;;;;10.77;37.48;102994.40;1671338;84;21055;-86
2022/05/09 07:06:10;;;;;;;2.85;1.17;;;;;;;10.73;37.43;102993.72;1671259;84;21110;-86
2022/05/09 07:08:38;;;;;;;6.00;1.10;;;;;;;10.80;37.57;102997.23;1645184;84;21825;-86
2022/05/09 07:11:06;;;;;;;3.67;1.27;;;;;;;10.85;37.54;102994.47;1640298;85;21113;-85
2022/05/09 07:13:33;;;;;;;1.98;1.10;;;;;;;10.83;37.68;102997.42;1670818;84;21082;-86
2022/05/09 07:15:59;;;;;;;4.47;0.95;;;;;;;10.88;37.65;102996.37;1671275;84;21094;-86
2022/05/09 07:18:27;;;;;;;4.47;1.00;;;;;;;10.91;37.82;102991.30;1671562;84;21612;-86
2022/05/09 07:20:54;;;;;;;2.90;1.30;;;;;;;11.03;37.73;102997.27;1671398;84;22678;-85
2022/05/09 07:23:21;;;;;;;3.00;0.95;;;;;;;11.01;37.42;102996.28;1671520;84;21180;-86
2022/05/09 07:25:50;;;;;;;6.90;2.02;;;;;;;10.93;37.44;102995.34;1671476;84;21098;-86
2022/05/09 07:28:21;;;;;;;4.60;1.40;;;;;;;10.93;37.46;102994.03;1671197;85;21098;-86
2022/05/09 07:30:47;;;;;;;4.67;1.30;;;;;;;10.91;37.41;102995.66;1671338;84;21105;-86
2022/05/09 07:33:15;;;;;;;2.10;1.10;;;;;;;10.93;37.49;103000.20;1655733;85;22277;-86
2022/05/09 07:35:43;;;;;;;1.50;1.10;;;;;;;10.98;37.49;102995.19;1668543;84;21497;-86
2022/05/09 07:38:11;;;;;;;2.92;1.12;;;;;;;11.03;37.50;102993.32;1671741;84;21090;-86
2022/05/09 07:40:40;;;;;;;3.90;1.35;;;;;;;11.04;37.41;102999.11;1696049;82;21105;-86
2022/05/09 07:43:14;;;;;;;4.20;1.40;;;;;;;11.07;37.51;102991.77;1715300;83;21064;-85
2022/05/09 07:45:41;;;;;;;4.87;1.10;;;;;;;11.14;37.60;102991.33;1688302;82;21766;-85
2022/05/09 07:48:08;;;;;;;3.52;1.30;;;;;;;11.24;37.55;102991.45;1711285;82;21088;-85
2022/05/09 07:50:35;;;;;;;3.10;1.60;;;;;;;11.31;37.44;102988.77;1701418;82;21084;-85
2022/05/09 07:53:08;;;;;;;3.20;1.37;;;;;;;11.36;37.52;102986.90;1735610;80;21166;-84
2022/05/09 07:55:35;;;;;;;1.82;1.00;;;;;;;11.45;37.50;102990.06;1743526;81;21075;-85
2022/05/09 07:58:02;;;;;;;3.95;1.30;;;;;;;11.51;37.41;102985.97;1742269;81;21755;-85
2022/05/09 08:00:29;;;;;;;6.75;1.20;;;;;;;11.59;37.48;102981.61;1746031;81;21090;-86
2022/05/09 08:02:56;;;;;;;2.08;0.98;;;;;;;11.72;37.57;102985.84;1745782;81;21050;-84
2022/05/09 08:05:23;;;;;;;4.10;1.42;;;;;;;11.79;37.36;102984.47;1735043;81;21218;-85
2022/05/09 08:07:49;;;;;;;3.30;1.37;;;;;;;11.80;37.27;102984.95;1732880;82;21002;-89
2022/05/09 08:10:16;;;;;;;1.50;1.07;;;;;;;11.74;37.00;102989.48;1745583;81;22523;-85
2022/05/09 08:12:43;;;;;;;3.10;1.20;;;;;;;11.72;37.08;102979.67;1745585;82;21078;-86
2022/05/09 08:15:12;;;;;;;2.30;0.70;;;;;;;11.74;37.05;102980.24;1720143;81;21076;-86
2022/05/09 08:17:38;;;;;;;2.50;1.10;;;;;;;11.74;37.12;102980.66;1740358;82;21551;-86
2022/05/09 08:20:06;;;;;;;5.65;1.50;;;;;;;11.79;37.11;102976.56;1720035;81;21120;-85
2022/05/09 08:22:34;;;;;;;1.82;0.95;;;;;;;11.85;37.29;102976.89;1746012;82;22194;-85
2022/05/09 08:25:02;;;;;;;3.17;1.00;;;;;;;11.94;37.22;102976.53;1750366;80;21051;-85
2022/05/09 08:27:29;;;;;;;2.58;1.12;;;;;;;11.96;37.03;102970.50;1724210;80;21003;-85
2022/05/09 08:29:56;;;;;;;2.87;1.25;;;;;;;12.02;37.20;102979.17;1750654;80;21169;-89
2022/05/09 08:32:25;;;;;;;2.72;1.45;;;;;;;12.12;37.44;102976.20;1748558;79;21126;-90
2022/05/09 08:34:52;;;;;;;3.80;1.10;;;;;;;12.23;37.20;102977.68;1747929;81;21751;-86
2022/05/09 08:37:19;;;;;;;2.40;1.22;;;;;;;12.26;37.06;102970.36;1722746;82;21360;-84
2022/05/09 08:39:46;;;;;;;3.05;1.10;;;;;;;12.21;37.10;102959.95;1713912;82;21227;-86
2022/05/09 08:42:23;;;;;;;2.72;1.30;;;;;;;12.34;36.92;102978.69;1719858;81;21115;-86
2022/05/09 08:45:19;;;;;;;3.27;1.40;;;;;;;12.28;36.69;102982.33;1746792;81;20999;-87
2022/05/09 08:48:15;;;;;;;2.92;1.02;;;;;;;12.25;36.54;102973.81;1684390;83;22206;-85
2022/05/09 08:51:18;;;;;;;3.60;1.37;;;;;;;12.25;36.67;102972.48;1650336;85;21109;-85
2022/05/09 08:53:45;;;;;;;5.30;1.52;;;;;;;12.26;36.88;102973.00;1634157;85;21189;-85
2022/05/09 08:56:25;;;;;;;6.35;1.60;;;;;;;12.29;36.76;102981.48;1650950;85;21118;-85
2022/05/09 08:59:04;;;;;;;2.42;1.07;;;;;;;12.24;36.55;102978.19;1663973;85;21614;-85
2022/05/09 09:02:11;;;;;;;5.00;1.00;;;;;;;12.29;35.68;102979.75;1654020;85;22037;-85
2022/05/09 09:04:38;;;;;;;3.50;1.27;;;;;;;12.30;35.80;102980.67;1658432;85;21118;-85
2022/05/09 09:07:31;;;;;;;14.85;3.33;;;;;;;12.37;36.04;102977.12;1650267;85;21129;-85
2022/05/09 09:10:24;;;;;;;1.95;1.17;;;;;;;12.41;35.80;102981.73;1650164;85;21138;-84
2022/05/09 09:13:23;;;;;;;1.60;0.90;;;;;;;12.42;35.94;102971.64;1650464;85;21122;-85
2022/05/09 09:16:25;;;;;;;1.70;1.00;;;;;;;12.51;36.16;102967.70;1650523;85;21840;-85
2022/05/09 09:19:47;;;;;;;1.02;0.65;;;;;;;12.64;36.43;102972.80;1648030;85;21125;-84
2022/05/09 09:22:38;;;;;;;4.00;1.07;;;;;;;12.66;36.82;102969.81;1678835;82;21606;-84
2022/05/09 09:25:30;;;;;;;7.00;1.80;;;;;;;12.80;37.30;102973.16;1743463;81;21038;-85
2022/05/09 09:28:08;;;;;;;4.53;2.15;;;;;;;12.86;37.49;102973.88;1746064;81;21062;-85
2022/05/09 09:30:35;;;;;;;2.55;1.47;;;;;;;12.81;37.61;102978.52;1744227;81;21916;-86
2022/05/09 09:33:05;;;;;;;2.00;1.10;;;;;;;12.86;37.50;102984.45;1745886;81;21054;-86
2022/05/09 09:35:40;;;;;;;5.90;1.70;;;;;;;12.87;37.49;102969.11;1741593;81;21068;-85
2022/05/09 09:38:39;;;;;;;1.62;1.05;;;;;;;12.92;37.47;102971.58;1741553;81;21066;-85
2022/05/09 09:41:34;;;;;;;5.97;1.50;;;;;;;12.88;37.49;102965.22;1722120;82;21046;-86
2022/05/09 09:44:17;;;;;;;2.10;1.25;;;;;;;12.99;37.56;102959.17;1728692;81;21779;-85
2022/05/09 09:47:08;;;;;;;2.45;1.60;;;;;;;12.99;37.32;102968.00;1715821;82;21071;-84
2022/05/09 09:49:41;;;;;;;6.35;2.92;;;;;;;12.92;37.29;102971.16;1723582;82;21075;-85
2022/05/09 09:52:27;;;;;;;3.50;1.50;;;;;;;12.85;37.29;102966.38;1738200;82;21123;-85
2022/05/09 09:55:07;;;;;;;4.55;1.50;;;;;;;12.83;37.40;102963.65;1723215;80;21749;-85
2022/05/09 09:57:36;;;;;;;1.72;1.25;;;;;;;12.95;37.41;102959.42;1725627;82;21761;-84
2022/05/09 10:00:29;;;;;;;7.85;2.80;;;;;;;12.97;37.31;102955.52;1736362;82;21464;-85
2022/05/09 10:02:58;;;;;;;4.00;2.02;;;;;;;12.91;37.36;102952.56;1715582;82;21001;-86
2022/05/09 10:05:35;;;;;;;5.17;1.22;;;;;;;12.87;37.21;102950.18;1742229;82;20975;-85
2022/05/09 10:08:34;;;;;;;4.95;1.15;;;;;;;12.83;37.38;102953.50;1745314;82;21461;-86
2022/05/09 10:11:14;;;;;;;3.52;2.27;;;;;;;12.79;37.17;102948.47;1745334;82;21718;-85
2022/05/09 10:13:44;;;;;;;3.35;1.30;;;;;;;12.70;37.18;102944.03;1717767;82;21475;-85
2022/05/09 10:16:31;;;;;;;2.87;1.12;;;;;;;12.75;37.28;102945.19;1744077;82;21409;-86
2022/05/09 10:19:00;;;;;;;2.83;1.15;;;;;;;12.79;37.02;102940.97;1728877;82;21052;-84
2022/05/09 10:24:51;;;;;;;2.02;1.07;;;;;;;12.81;36.80;102957.80;1721206;82;21727;-85
2022/05/09 10:27:28;;;;;;;1.75;1.05;;;;;;;12.82;36.52;102951.28;1722884;82;21103;-85
2022/05/09 10:29:58;;;;;;;3.30;0.90;;;;;;;12.73;36.41;102948.59;1733565;82;21099;-85
2022/05/09 10:32:30;;;;;;;3.35;1.22;;;;;;;12.71;36.26;102947.61;1705161;80;21138;-85
2022/05/09 10:35:14;;;;;;;4.22;1.27;;;;;;;12.69;36.35;102943.95;1728818;82;21136;-84
2022/05/09 10:37:48;;;;;;;2.98;1.45;;;;;;;12.71;36.18;102941.90;1731116;82;21744;-84
2022/05/09 10:40:23;;;;;;;1.70;1.00;;;;;;;12.69;36.12;102918.84;1729067;82;21418;-84
2022/05/09 10:43:06;;;;;;;2.30;1.20;;;;;;;12.88;36.07;102932.19;1727926;81;21050;-84
2022/05/09 10:45:41;;;;;;;1.72;1.07;;;;;;;12.87;35.73;102940.92;1727216;82;21069;-85
2022/05/09 10:48:35;;;;;;;4.62;1.30;;;;;;;12.95;35.62;102932.99;1719433;82;21158;-86
2022/05/09 10:51:18;;;;;;;3.42;1.00;;;;;;;13.06;35.43;102936.57;1718915;81;21759;-85
2022/05/09 10:54:14;;;;;;;1.67;0.90;;;;;;;13.14;35.34;102933.48;1697629;82;21087;-85
2022/05/09 10:56:46;;;;;;;3.35;0.88;;;;;;;13.16;34.77;102933.57;1705002;83;21490;-85
2022/05/09 10:59:23;;;;;;;3.25;1.12;;;;;;;13.13;34.64;102926.80;1724142;82;21068;-85
2022/05/09 11:01:56;;;;;;;2.17;1.10;;;;;;;13.27;34.58;102928.39;1711620;83;21071;-85
2022/05/09 11:04:25;;;;;;;1.82;1.35;;;;;;;13.40;34.58;102925.93;1700613;83;26771;-85
2022/05/09 11:07:41;;;;;;;3.35;2.40;;;;;;;13.47;33.99;102921.43;1716027;81;21115;-85
2022/05/09 11:10:42;;;;;;;2.30;0.95;;;;;;;13.52;33.59;102926.53;1723540;83;21152;-85
2022/05/09 11:13:32;;;;;;;2.58;0.90;;;;;;;13.51;33.05;102918.09;1702055;83;21408;-84
2022/05/09 11:16:28;;;;;;;3.05;0.98;;;;;;;13.48;33.09;102915.32;1706355;83;21087;-85
2022/05/09 11:19:36;;;;;;;3.72;1.42;;;;;;;13.47;32.75;102906.88;1604035;84;21791;-84
2022/05/09 11:22:35;;;;;;;1.80;0.80;;;;;;;13.64;32.73;102910.32;1699879;83;21066;-84
2022/05/09 11:25:16;;;;;;;1.10;0.93;;;;;;;13.83;32.54;102908.54;1687283;83;21132;-85
2022/05/09 11:27:57;;;;;;;1.30;0.80;;;;;;;13.77;32.24;102899.89;1707624;83;21080;-84
2022/05/09 11:30:49;;;;;;;3.22;1.00;;;;;;;13.80;32.12;102905.34;1702780;83;21116;-86
2022/05/09 11:33:30;;;;;;;1.80;0.80;;;;;;;13.90;32.18;102904.02;1689439;82;21831;-85
2022/05/09 11:35:59;;;;;;;2.52;1.40;;;;;;;13.93;32.10;102902.84;1713563;82;21108;-85
2022/05/09 11:38:43;;;;;;;3.42;1.20;;;;;;;13.94;31.86;102901.56;1715483;83;21119;-85
2022/05/09 11:41:52;;;;;;;1.12;0.70;;;;;;;13.82;31.94;102902.77;1704250;82;21558;-85
2022/05/09 11:44:23;;;;;;;3.08;1.05;;;;;;;13.86;32.13;102900.75;1676603;85;22212;-85
2022/05/09 11:47:26;;;;;;;3.45;1.20;;;;;;;13.95;32.23;102901.17;1700830;82;21829;-85
2022/05/09 11:50:10;;;;;;;1.60;1.07;;;;;;;13.96;32.06;102907.87;1578913;88;21158;-84
2022/05/09 11:52:43;;;;;;;;;;;;;;;13.89;31.94;102899.16;1564425;89;21628;-84
2022/05/09 11:55:27;;;;;;;2.00;1.17;;;;;;;13.87;31.84;102898.17;1585897;89;20455;-86
2022/05/09 11:58:00;;;;;;;1.20;0.88;;;;;;;13.89;31.95;102892.53;1616829;87;27373;-85
2022/05/09 12:00:38;;;;;;;3.25;1.20;;;;;;;13.90;31.83;102897.40;1616876;87;22583;-86